createdAt,value
2019-01-21T00:02:38.928Z,11.33
2019-01-21T00:05:12.709Z,11.57
2019-01-21T00:08:10.550Z,12.53
2019-01-21T00:10:44.253Z,12.07
2019-01-21T00:13:17.847Z,13.03
2019-01-21T00:15:51.546Z,11.40
2019-01-21T00:18:25.255Z,12.00
2019-01-21T00:20:58.947Z,12.27
2019-01-21T00:23:32.646Z,11.90
2019-01-21T00:26:06.420Z,11.17
2019-01-21T00:28:43.164Z,11.17
2019-01-21T00:31:16.817Z,11.90
2019-01-21T00:33:56.113Z,9.00
2019-01-21T00:36:41.986Z,10.77
2019-01-21T00:39:15.571Z,10.27
2019-01-21T00:42:04.690Z,10.47
2019-01-21T00:44:38.665Z,11.10
2019-01-21T00:47:12.683Z,10.63
2019-01-21T00:49:55.509Z,11.20
2019-01-21T00:52:29.094Z,11.57
2019-01-21T00:55:02.726Z,11.93
2019-01-21T00:57:44.388Z,12.60
2019-01-21T01:00:23.724Z,10.70
2019-01-21T01:02:57.495Z,13.03
2019-01-21T01:05:31.257Z,13.87
2019-01-21T01:08:05.830Z,14.73
2019-01-21T01:10:39.427Z,13.40
2019-01-21T01:13:13.134Z,11.13
2019-01-21T01:15:46.861Z,12.30
2019-01-21T01:18:20.487Z,13.37
2019-01-21T01:21:04.001Z,12.77
2019-01-21T01:23:37.698Z,12.70
2019-01-21T01:26:11.351Z,14.27
2019-01-21T01:28:54.198Z,14.33
2019-01-21T01:31:27.793Z,14.70
2019-01-21T01:34:01.486Z,12.67
2019-01-21T01:36:41.214Z,13.80
2019-01-21T01:39:14.837Z,12.37
2019-01-21T01:41:48.582Z,11.60
2019-01-21T01:44:28.568Z,13.93
2019-01-21T01:47:02.234Z,12.80
2019-01-21T01:49:44.265Z,13.40
2019-01-21T01:52:18.056Z,12.37
2019-01-21T01:54:51.703Z,12.53
2019-01-21T01:57:25.458Z,12.33
2019-01-21T01:59:59.221Z,12.53
2019-01-21T02:02:32.877Z,12.00
2019-01-21T02:05:18.729Z,10.83
2019-01-21T02:07:54.438Z,12.17
2019-01-21T02:10:28.202Z,11.43
2019-01-21T02:13:08.989Z,8.20
2019-01-21T02:15:43.071Z,12.53
2019-01-21T02:18:16.657Z,8.13
2019-01-21T02:20:53.674Z,10.33
2019-01-21T02:23:29.766Z,12.07
2019-01-21T02:26:05.541Z,10.57
2019-01-21T02:28:45.074Z,10.57
2019-01-21T02:31:38.966Z,12.27
2019-01-21T02:34:18.588Z,12.00
2019-01-21T02:37:07.148Z,9.80
2019-01-21T02:39:52.944Z,11.63
2019-01-21T02:42:55.442Z,13.13
2019-01-21T02:45:43.269Z,14.33
2019-01-21T02:48:22.556Z,14.60
2019-01-21T02:50:59.240Z,14.33
2019-01-21T02:53:41.806Z,14.27
2019-01-21T02:56:18.479Z,13.53
2019-01-21T02:59:14.928Z,13.70
2019-01-21T03:02:11.257Z,14.50
2019-01-21T03:05:21.528Z,14.13
2019-01-21T03:08:19.407Z,13.83
2019-01-21T03:11:17.212Z,14.80
2019-01-21T03:14:05.787Z,15.13
2019-01-21T03:16:53.885Z,14.43
2019-01-21T03:19:44.882Z,16.00
2019-01-21T03:22:40.876Z,13.47
2019-01-21T03:25:35.442Z,15.53
2019-01-21T03:28:30.044Z,14.60
2019-01-21T03:31:12.639Z,14.00
2019-01-21T03:33:51.871Z,15.13
2019-01-21T03:36:46.181Z,14.07
2019-01-21T03:39:42.656Z,15.20
2019-01-21T03:42:19.356Z,14.03
2019-01-21T03:45:21.194Z,14.70
2019-01-21T03:47:57.863Z,14.60
2019-01-21T03:50:46.387Z,16.10
2019-01-21T03:56:09.500Z,14.40
2019-01-21T03:59:22.722Z,11.63
2019-01-21T04:02:14.661Z,13.73
2019-01-21T04:04:51.370Z,15.37
2019-01-21T04:07:34.807Z,15.50
2019-01-21T04:10:50.871Z,15.43
2019-01-21T04:13:33.140Z,16.37
2019-01-21T04:16:12.432Z,18.03
2019-01-21T04:22:04.757Z,15.17
2019-01-21T04:24:41.426Z,13.00
2019-01-21T04:27:45.263Z,16.57
2019-01-21T04:30:52.513Z,13.37
2019-01-21T04:33:35.227Z,14.57
2019-01-21T04:36:29.683Z,13.23
2019-01-21T04:39:28.003Z,16.60
2019-01-21T04:42:02.826Z,12.43
2019-01-21T04:44:39.551Z,16.53
2019-01-21T04:47:39.866Z,15.40
2019-01-21T04:50:48.503Z,16.67
2019-01-21T04:53:31.140Z,13.03
2019-01-21T04:56:41.151Z,13.07
2019-01-21T04:59:26.774Z,14.33
2019-01-21T05:02:06.726Z,14.77
2019-01-21T05:05:15.271Z,14.73
2019-01-21T05:08:25.381Z,14.63
2019-01-21T05:11:21.641Z,14.23
2019-01-21T05:14:17.831Z,12.60
2019-01-21T05:16:54.502Z,14.97
2019-01-21T05:19:55.250Z,10.87
2019-01-21T05:22:40.923Z,13.17
2019-01-21T05:25:43.607Z,15.07
2019-01-21T05:28:34.243Z,7.70
2019-01-21T05:31:10.945Z,16.20
2019-01-21T05:33:50.710Z,14.53
2019-01-21T05:36:52.977Z,12.87
2019-01-21T05:40:02.931Z,9.33
2019-01-21T05:43:31.440Z,15.30
2019-01-21T05:46:22.551Z,14.97
2019-01-21T05:49:07.866Z,17.43
2019-01-21T05:51:56.839Z,14.10
2019-01-21T05:54:33.535Z,13.20
2019-01-21T05:57:32.702Z,17.40
2019-01-21T06:00:13.415Z,13.53
2019-01-21T06:03:08.131Z,19.27
2019-01-21T06:06:10.659Z,16.33
2019-01-21T06:08:59.565Z,17.00
2019-01-21T06:11:58.823Z,12.30
2019-01-21T06:14:47.189Z,16.73
2019-01-21T06:17:29.479Z,15.93
2019-01-21T06:20:24.182Z,16.57
2019-01-21T06:23:12.966Z,11.07
2019-01-21T06:25:52.652Z,14.97
2019-01-21T06:29:01.233Z,16.03
2019-01-21T06:31:58.887Z,17.33
2019-01-21T06:34:47.227Z,18.33
2019-01-21T06:37:49.718Z,18.17
2019-01-21T06:40:58.225Z,14.47
2019-01-21T06:43:38.049Z,19.80
2019-01-21T06:46:29.880Z,18.17
2019-01-21T06:49:29.238Z,18.37
2019-01-21T06:52:27.339Z,19.07
2019-01-21T06:55:12.989Z,15.53
2019-01-21T06:58:20.187Z,18.17
2019-01-21T07:01:33.277Z,17.37
2019-01-21T07:04:32.597Z,18.57
2019-01-21T07:07:31.869Z,17.77
2019-01-21T07:10:20.299Z,17.40
2019-01-21T07:13:25.730Z,17.30
2019-01-21T07:16:05.188Z,18.80
2019-01-21T07:18:44.828Z,15.47
2019-01-21T07:21:50.133Z,17.53
2019-01-21T07:24:26.873Z,16.40
2019-01-21T07:27:12.374Z,18.97
2019-01-21T07:30:04.399Z,18.47
2019-01-21T07:33:00.587Z,20.13
2019-01-21T07:35:58.466Z,18.60
2019-01-21T07:38:35.153Z,17.33
2019-01-21T07:41:17.417Z,18.70
2019-01-21T07:44:02.753Z,21.17
2019-01-21T07:47:24.770Z,16.23
2019-01-21T07:50:10.298Z,17.63
2019-01-21T07:53:06.702Z,18.50
2019-01-21T07:55:45.376Z,14.63
2019-01-21T07:58:28.042Z,17.40
2019-01-21T08:01:19.733Z,14.33
2019-01-21T08:03:56.444Z,15.57
2019-01-21T08:06:50.327Z,15.93
2019-01-21T08:09:48.191Z,14.93
2019-01-21T08:12:44.822Z,19.17
2019-01-21T08:15:56.474Z,18.40
2019-01-21T08:19:05.938Z,17.43
2019-01-21T08:22:02.239Z,20.80
2019-01-21T08:25:13.943Z,12.30
2019-01-21T08:28:10.370Z,17.10
2019-01-21T08:31:13.441Z,16.50
2019-01-21T08:33:55.854Z,16.13
2019-01-21T08:36:59.781Z,18.93
2019-01-21T08:39:54.541Z,20.90
2019-01-21T08:42:46.377Z,17.37
2019-01-21T08:45:50.175Z,17.67
2019-01-21T08:48:49.595Z,18.53
2019-01-21T08:51:26.254Z,12.63
2019-01-21T08:54:11.440Z,15.87
2019-01-21T08:56:54.820Z,21.20
2019-01-21T08:59:31.520Z,19.20
2019-01-21T09:02:47.908Z,21.00
2019-01-21T09:05:30.292Z,18.77
2019-01-21T09:08:23.148Z,16.10
2019-01-21T09:11:05.870Z,18.90
2019-01-21T09:13:57.407Z,20.00
2019-01-21T09:16:59.961Z,19.03
2019-01-21T09:20:00.809Z,16.97
2019-01-21T09:22:59.741Z,15.40
2019-01-21T09:25:55.683Z,18.30
2019-01-21T09:28:48.390Z,20.07
2019-01-21T09:34:52.724Z,17.20
2019-01-21T09:37:35.326Z,22.77
2019-01-21T09:40:33.114Z,20.17
2019-01-21T09:43:35.589Z,21.47
2019-01-21T09:46:18.282Z,18.87
2019-01-21T09:48:50.825Z,22.93
2019-01-21T09:51:27.027Z,20.33
2019-01-21T09:54:07.463Z,21.77
2019-01-21T09:56:41.726Z,22.63
2019-01-21T09:59:20.413Z,22.80
2019-01-21T10:01:56.732Z,23.30
2019-01-21T10:04:47.035Z,21.60
2019-01-21T10:07:35.579Z,20.47
2019-01-21T10:10:35.092Z,21.50
2019-01-21T10:13:34.713Z,22.50
2019-01-21T10:16:20.090Z,24.47
2019-01-21T10:19:12.521Z,22.40
2019-01-21T10:22:01.123Z,20.93
2019-01-21T10:24:46.769Z,16.70
2019-01-21T10:27:53.379Z,17.57
2019-01-21T10:30:53.156Z,18.27
2019-01-21T10:33:52.023Z,21.80
2019-01-21T10:36:37.694Z,17.50
2019-01-21T10:39:37.390Z,21.27
2019-01-21T10:42:35.077Z,21.10
2019-01-21T10:45:14.406Z,20.07
2019-01-21T10:50:59.011Z,16.23
2019-01-21T10:54:21.002Z,18.73
2019-01-21T10:57:00.485Z,19.73
2019-01-21T10:59:55.120Z,21.13
2019-01-21T11:02:46.160Z,22.07
2019-01-21T11:05:28.773Z,22.00
2019-01-21T11:08:08.447Z,19.27
2019-01-21T11:10:57.460Z,18.20
2019-01-21T11:14:07.885Z,17.60
2019-01-21T11:16:45.876Z,12.07
2019-01-21T11:22:07.527Z,14.07
2019-01-21T11:25:17.354Z,17.43
2019-01-21T11:28:06.338Z,17.57
2019-01-21T11:31:23.672Z,14.57
2019-01-21T11:34:15.538Z,17.30
2019-01-21T11:37:10.368Z,17.60
2019-01-21T11:40:18.877Z,18.93
2019-01-21T11:43:12.021Z,16.40
2019-01-21T11:46:16.191Z,16.10
2019-01-21T11:49:13.774Z,15.90
2019-01-21T11:52:27.980Z,18.93
2019-01-21T11:55:26.257Z,15.93
2019-01-21T12:01:04.236Z,15.07
2019-01-21T12:04:01.931Z,15.60
2019-01-21T12:06:41.162Z,16.80
2019-01-21T12:09:37.760Z,18.73
2019-01-21T12:12:14.489Z,16.77
2019-01-21T12:15:04.519Z,16.10
2019-01-21T12:17:59.234Z,16.83
2019-01-21T12:20:38.550Z,16.03
2019-01-21T12:23:32.073Z,14.07
2019-01-21T12:26:11.468Z,17.60
2019-01-21T12:29:07.610Z,15.50
2019-01-21T12:31:50.423Z,15.53
2019-01-21T12:34:32.902Z,15.00
2019-01-21T12:37:26.736Z,14.10
2019-01-21T12:40:18.214Z,14.23
2019-01-21T12:43:03.263Z,15.97
2019-01-21T12:45:54.887Z,16.00
2019-01-21T12:48:49.804Z,16.20
2019-01-21T12:51:26.501Z,16.97
2019-01-21T12:54:34.766Z,15.70
2019-01-21T12:57:27.990Z,17.37
2019-01-21T13:00:21.260Z,14.67
2019-01-21T13:03:01.019Z,17.00
2019-01-21T13:05:40.647Z,17.00
2019-01-21T13:08:26.457Z,15.87
2019-01-21T13:11:03.166Z,16.27
2019-01-21T13:13:49.052Z,15.60
2019-01-21T13:16:52.302Z,16.53
2019-01-21T13:19:47.019Z,15.97
2019-01-21T13:22:26.450Z,17.10
2019-01-21T13:25:31.618Z,17.53
2019-01-21T13:28:35.508Z,17.13
2019-01-21T13:31:24.102Z,17.17
2019-01-21T13:34:24.790Z,16.27
2019-01-21T13:37:04.347Z,15.90
2019-01-21T13:40:07.018Z,19.10
2019-01-21T13:42:46.643Z,16.67
2019-01-21T13:45:38.638Z,17.87
2019-01-21T13:48:15.325Z,17.07
2019-01-21T13:51:16.226Z,17.97
2019-01-21T13:53:55.649Z,16.73
2019-01-21T13:56:34.538Z,13.03
2019-01-21T13:59:17.104Z,17.03
2019-01-21T14:01:53.814Z,18.83
2019-01-21T14:04:42.699Z,15.80
2019-01-21T14:07:25.364Z,16.93
2019-01-21T14:10:33.747Z,15.80
2019-01-21T14:13:19.373Z,19.13
2019-01-21T14:16:05.181Z,19.97
2019-01-21T14:18:53.998Z,17.97
2019-01-21T14:21:38.133Z,20.47
2019-01-21T14:24:34.790Z,19.77
2019-01-21T14:27:20.366Z,20.50
2019-01-21T14:30:09.292Z,21.50
2019-01-21T14:33:19.424Z,19.10
2019-01-21T14:36:04.304Z,21.60
2019-01-21T14:38:59.286Z,19.23
2019-01-21T14:41:52.786Z,21.80
2019-01-21T14:44:35.282Z,21.90
2019-01-21T14:47:27.150Z,21.83
2019-01-21T14:50:09.711Z,22.70
2019-01-21T14:53:21.218Z,22.87
2019-01-21T14:56:03.775Z,21.70
2019-01-21T14:58:47.445Z,21.83
2019-01-21T15:01:29.887Z,20.60
2019-01-21T15:04:06.562Z,24.00
2019-01-21T15:07:03.085Z,23.37
2019-01-21T15:09:42.754Z,21.33
2019-01-21T15:12:19.440Z,24.13
2019-01-21T15:15:12.860Z,24.80
2019-01-21T15:18:13.687Z,23.70
2019-01-21T15:21:02.894Z,21.83
2019-01-21T15:23:51.516Z,22.70
2019-01-21T15:26:43.258Z,21.73
2019-01-21T15:29:38.278Z,19.33
2019-01-21T15:32:45.489Z,18.07
2019-01-21T15:35:28.254Z,23.83
2019-01-21T15:38:16.156Z,22.80
2019-01-21T15:41:18.357Z,18.80
2019-01-21T15:43:55.070Z,22.37
2019-01-21T15:47:06.937Z,23.83
2019-01-21T15:49:49.793Z,21.00
2019-01-21T15:52:42.963Z,23.47
2019-01-21T15:55:22.484Z,23.47
2019-01-21T15:57:59.172Z,24.43
2019-01-21T16:01:01.518Z,24.50
2019-01-21T16:03:53.607Z,24.00
2019-01-21T16:06:36.291Z,23.50
2019-01-21T16:09:21.840Z,23.10
2019-01-21T16:12:24.262Z,23.87
2019-01-21T16:15:35.674Z,23.00
2019-01-21T16:18:12.380Z,24.20
2019-01-21T16:21:04.174Z,24.97
2019-01-21T16:24:12.527Z,23.10
2019-01-21T16:26:49.206Z,23.30
2019-01-21T16:29:41.820Z,24.20
2019-01-21T16:32:15.866Z,25.67
2019-01-21T16:34:58.331Z,25.37
2019-01-21T16:37:39.767Z,24.67
2019-01-21T16:40:48.437Z,23.93
2019-01-21T16:43:22.166Z,25.23
2019-01-21T16:45:55.963Z,24.83
2019-01-21T16:48:29.642Z,24.13
2019-01-21T16:51:03.431Z,25.73
2019-01-21T16:53:37.189Z,26.50
2019-01-21T16:56:10.898Z,27.53
2019-01-21T16:58:53.558Z,25.80
2019-01-21T17:01:27.200Z,26.63
2019-01-21T17:04:00.937Z,31.17
2019-01-21T17:06:42.125Z,29.50
2019-01-21T17:09:15.782Z,26.50
2019-01-21T17:11:49.967Z,27.37
2019-01-21T17:14:23.639Z,25.63
2019-01-21T17:16:57.338Z,24.10
2019-01-21T17:19:31.080Z,28.03
2019-01-21T17:22:06.776Z,29.03
2019-01-21T17:24:40.526Z,28.63
2019-01-21T17:27:14.582Z,29.30
2019-01-21T17:29:48.850Z,28.40
2019-01-21T17:32:23.276Z,27.87
2019-01-21T17:34:57.273Z,28.60
2019-01-21T17:37:30.976Z,28.67
2019-01-21T17:40:18.732Z,30.03
2019-01-21T17:42:52.356Z,28.70
2019-01-21T17:45:26.040Z,29.17
2019-01-21T17:47:59.780Z,27.67
2019-01-21T17:50:33.487Z,28.70
2019-01-21T17:53:07.220Z,30.10
2019-01-21T17:55:56.016Z,29.93
2019-01-21T17:58:29.932Z,30.40
2019-01-21T18:01:03.694Z,32.57
2019-01-21T18:03:40.360Z,31.70
2019-01-21T18:06:14.059Z,30.10
2019-01-21T18:08:47.668Z,31.10
2019-01-21T18:11:24.435Z,28.67
2019-01-21T18:13:58.102Z,31.50
2019-01-21T18:16:31.953Z,30.43
2019-01-21T18:19:11.624Z,30.73
2019-01-21T18:21:45.302Z,30.13
2019-01-21T18:24:18.972Z,31.27
2019-01-21T18:26:52.690Z,28.93
2019-01-21T18:29:26.367Z,30.13
2019-01-21T18:32:15.396Z,28.53
2019-01-21T18:34:49.137Z,29.63
2019-01-21T18:37:22.900Z,29.23
2019-01-21T18:39:56.729Z,29.83
2019-01-21T18:42:30.358Z,31.43
2019-01-21T18:45:24.654Z,30.30
2019-01-21T18:47:58.427Z,32.50
2019-01-21T18:50:35.074Z,29.20
2019-01-21T18:53:08.777Z,30.57
2019-01-21T18:55:42.483Z,29.40
2019-01-21T18:58:16.386Z,30.40
2019-01-21T19:00:50.025Z,30.97
2019-01-21T19:03:42.273Z,31.20
2019-01-21T19:06:17.750Z,31.77
2019-01-21T19:08:51.447Z,30.30
2019-01-21T19:11:37.214Z,30.80
2019-01-21T19:14:10.909Z,31.73
2019-01-21T19:16:44.602Z,31.40
2019-01-21T19:19:18.273Z,32.23
2019-01-21T19:21:53.739Z,32.80
2019-01-21T19:27:29.713Z,32.20
2019-01-21T19:30:05.073Z,29.83
2019-01-21T19:33:12.046Z,29.17
2019-01-21T19:35:45.630Z,30.77
2019-01-21T19:38:19.256Z,31.07
2019-01-21T19:40:52.993Z,31.23
2019-01-21T19:43:26.632Z,29.87
2019-01-21T19:46:00.286Z,31.43
2019-01-21T19:48:33.932Z,30.33
2019-01-21T19:51:07.666Z,31.33
2019-01-21T19:53:50.209Z,32.43
2019-01-21T19:56:23.870Z,30.47
2019-01-21T19:58:57.496Z,31.00
2019-01-21T20:01:31.098Z,33.33
2019-01-21T20:04:05.185Z,31.00
2019-01-21T20:06:38.911Z,32.30
2019-01-21T20:09:12.607Z,32.57
2019-01-21T20:11:46.279Z,34.03
2019-01-21T20:14:26.019Z,31.63
2019-01-21T20:16:59.686Z,31.50
2019-01-21T20:19:33.318Z,33.17
2019-01-21T20:22:19.182Z,31.30
2019-01-21T20:24:52.987Z,29.80
2019-01-21T20:27:26.665Z,32.80
2019-01-21T20:30:23.490Z,35.40
2019-01-21T20:32:57.165Z,32.80
2019-01-21T20:35:40.544Z,31.00
2019-01-21T20:38:14.287Z,34.23
2019-01-21T20:40:48.056Z,34.63
2019-01-21T20:43:21.656Z,35.07
2019-01-21T20:45:55.497Z,32.90
2019-01-21T20:48:29.160Z,32.20
2019-01-21T20:51:02.784Z,33.03
2019-01-21T20:53:36.446Z,35.07
2019-01-21T20:56:10.150Z,31.37
2019-01-21T20:58:51.649Z,31.43
2019-01-21T21:01:25.480Z,32.63
2019-01-21T21:04:02.204Z,31.17
2019-01-21T21:06:40.808Z,29.83
2019-01-21T21:09:14.520Z,30.93
2019-01-21T21:11:57.040Z,31.07
2019-01-21T21:14:30.721Z,29.17
2019-01-21T21:17:16.608Z,31.10
2019-01-21T21:19:50.298Z,30.57
2019-01-21T21:22:26.087Z,31.63
2019-01-21T21:25:00.211Z,31.03
2019-01-21T21:27:33.780Z,30.23
2019-01-21T21:30:10.495Z,32.47
2019-01-21T21:32:44.208Z,31.97
2019-01-21T21:35:25.601Z,32.50
2019-01-21T21:37:59.339Z,30.73
2019-01-21T21:40:54.289Z,31.97
2019-01-21T21:43:28.121Z,30.87
2019-01-21T21:46:09.231Z,33.37
2019-01-21T21:48:42.897Z,31.63
2019-01-21T21:51:28.677Z,33.27
2019-01-21T21:54:02.342Z,31.00
2019-01-21T21:56:57.908Z,32.60
2019-01-21T21:59:31.547Z,31.80
2019-01-21T22:02:05.313Z,29.60
2019-01-21T22:04:57.488Z,31.37
2019-01-21T22:07:31.142Z,32.40
2019-01-21T22:10:19.674Z,30.43
2019-01-21T22:12:52.834Z,29.47
2019-01-21T22:15:30.295Z,32.37
2019-01-21T22:18:04.393Z,30.50
2019-01-21T22:20:38.295Z,29.67
2019-01-21T22:23:11.921Z,31.17
2019-01-21T22:25:45.507Z,32.67
2019-01-21T22:28:19.121Z,31.53
2019-01-21T22:30:52.860Z,31.80
2019-01-21T22:33:30.532Z,30.23
2019-01-21T22:36:04.264Z,32.10
2019-01-21T22:38:41.763Z,30.57
2019-01-21T22:41:15.659Z,31.20
2019-01-21T22:43:49.710Z,31.67
2019-01-21T22:46:32.620Z,31.97
2019-01-21T22:49:06.425Z,33.47
2019-01-21T22:51:40.005Z,33.40
2019-01-21T22:54:26.816Z,31.97
2019-01-21T22:57:00.421Z,32.33
2019-01-21T22:59:34.121Z,33.27
2019-01-21T23:02:08.434Z,34.77
2019-01-21T23:04:42.138Z,33.53
2019-01-21T23:07:16.055Z,34.63
2019-01-21T23:09:49.757Z,34.80
2019-01-21T23:12:23.516Z,34.67
2019-01-21T23:15:08.051Z,35.63
2019-01-21T23:17:41.751Z,35.40
2019-01-21T23:20:15.561Z,33.40
2019-01-21T23:22:58.282Z,33.13
2019-01-21T23:25:32.146Z,33.80
2019-01-21T23:28:05.960Z,35.70
2019-01-21T23:30:39.625Z,34.23
2019-01-21T23:33:13.331Z,33.27
2019-01-21T23:35:47.012Z,35.63
2019-01-21T23:38:23.703Z,34.13
2019-01-21T23:40:57.406Z,35.00
2019-01-21T23:43:40.121Z,32.33
2019-01-21T23:46:14.195Z,30.07
2019-01-21T23:48:47.778Z,32.23
2019-01-21T23:51:21.402Z,33.63
2019-01-21T23:53:55.372Z,30.63
2019-01-21T23:56:28.997Z,29.70
2019-01-21T23:59:02.589Z,28.03
